Time;durP1;ratioP1;P1;durP2;ratioP2;P2;SDS_P1;SDS_P2;PMS_P1;PMS_P2;Temp;Humidity;BMP_temperature;BMP_pressure;BME280_temperature;BME280_humidity;BME280_pressure;Samples;Min_cycle;Max_cycle;Signal;HPM_P1;HPM_P2
2021/03/30 00:00:46;;;;;;;62.40;6.72;;;6.50;1.00;;;;;;5091623;28;20629;-66
2021/03/30 00:03:14;;;;;;;60.80;6.85;;;6.50;1.00;;;;;;5091169;28;20200;-66
2021/03/30 00:05:41;;;;;;;59.95;5.97;;;6.50;1.00;;;;;;5091464;28;20200;-64
2021/03/30 00:08:08;;;;;;;62.95;6.80;;;6.40;1.00;;;;;;5091035;28;20277;-66
2021/03/30 00:10:38;;;;;;;61.90;6.70;;;6.40;1.00;;;;;;5091345;28;20691;-66
2021/03/30 00:13:04;;;;;;;61.95;6.32;;;6.30;1.00;;;;;;5091054;28;20295;-66
2021/03/30 00:15:31;;;;;;;62.47;6.78;;;6.30;1.00;;;;;;5091138;28;20207;-66
2021/03/30 00:17:58;;;;;;;60.65;6.32;;;6.30;1.00;;;;;;5091157;28;20573;-66
2021/03/30 00:20:25;;;;;;;64.03;6.10;;;6.30;1.00;;;;;;5091191;28;20604;-66
2021/03/30 00:22:52;;;;;;;60.88;6.03;;;6.30;1.00;;;;;;5090836;28;20236;-66
2021/03/30 00:25:18;;;;;;;62.80;6.57;;;6.20;1.00;;;;;;5091000;28;20243;-66
2021/03/30 00:27:45;;;;;;;71.07;7.07;;;6.20;1.00;;;;;;5091384;28;20228;-66
2021/03/30 00:30:13;;;;;;;60.85;6.40;;;6.10;1.00;;;;;;5091073;28;20277;-66
2021/03/30 00:32:40;;;;;;;61.53;6.10;;;6.10;1.00;;;;;;5091825;28;20251;-66
2021/03/30 00:35:07;;;;;;;60.78;6.20;;;6.10;1.00;;;;;;5094456;28;20256;-66
2021/03/30 00:37:34;;;;;;;62.58;6.53;;;6.00;1.00;;;;;;5094997;28;20238;-66
2021/03/30 00:40:01;;;;;;;61.60;6.45;;;5.90;1.00;;;;;;5094761;28;20613;-66
2021/03/30 00:42:28;;;;;;;59.85;5.97;;;5.90;1.00;;;;;;5094409;28;20210;-66
2021/03/30 00:44:57;;;;;;;63.15;6.45;;;5.90;1.00;;;;;;5094569;28;20619;-66
2021/03/30 00:47:23;;;;;;;60.35;5.95;;;5.80;1.00;;;;;;5094415;28;20272;-66
2021/03/30 00:49:51;;;;;;;60.05;6.00;;;5.80;1.00;;;;;;5094289;28;20228;-66
2021/03/30 00:52:18;;;;;;;61.35;5.70;;;5.70;1.00;;;;;;5094518;28;20290;-66
2021/03/30 00:54:46;;;;;;;60.38;6.30;;;5.60;1.00;;;;;;5094510;28;20211;-66
2021/03/30 00:57:16;;;;;;;59.88;6.13;;;5.60;1.00;;;;;;5094281;28;20232;-66
2021/03/30 00:59:42;;;;;;;63.13;6.50;;;5.50;1.00;;;;;;5094290;28;20226;-66
2021/03/30 01:02:09;;;;;;;63.45;6.57;;;5.50;1.00;;;;;;5094128;28;20291;-66
2021/03/30 01:04:35;;;;;;;61.35;6.60;;;5.50;1.00;;;;;;5093980;28;20204;-66
2021/03/30 01:07:02;;;;;;;60.25;5.82;;;5.50;1.00;;;;;;5094401;28;20311;-66
2021/03/30 01:09:38;;;;;;;63.25;6.35;;;5.50;1.00;;;;;;5094139;28;20311;-66
2021/03/30 01:12:28;;;;;;;61.15;6.13;;;5.50;1.00;;;;;;5094343;28;20223;-66
2021/03/30 01:15:04;;;;;;;65.25;7.20;;;5.50;1.00;;;;;;5093834;28;20212;-66
2021/03/30 01:17:37;;;;;;;61.67;6.57;;;5.50;1.00;;;;;;5092264;28;20224;-66
2021/03/30 01:20:42;;;;;;;60.40;6.10;;;5.50;1.00;;;;;;5087600;28;20193;-66
2021/03/30 01:23:42;;;;;;;61.50;6.95;;;5.50;1.00;;;;;;5085836;28;20243;-66
2021/03/30 01:26:23;;;;;;;61.00;6.70;;;5.40;1.00;;;;;;5086076;28;20279;-66
2021/03/30 01:29:19;;;;;;;62.53;7.05;;;5.40;1.00;;;;;;5093688;28;20224;-66
2021/03/30 01:31:50;;;;;;;62.92;6.70;;;5.30;1.00;;;;;;5093594;28;20214;-66
2021/03/30 01:34:20;;;;;;;61.20;7.15;;;5.30;1.00;;;;;;5093574;28;20299;-66
2021/03/30 01:36:50;;;;;;;62.47;6.38;;;5.20;1.00;;;;;;5093347;28;20672;-66
2021/03/30 01:39:18;;;;;;;61.53;6.72;;;5.20;1.00;;;;;;5093462;28;20224;-66
2021/03/30 01:41:47;;;;;;;61.53;7.20;;;5.20;1.00;;;;;;5093248;28;20695;-66
2021/03/30 01:44:15;;;;;;;61.67;6.95;;;5.10;1.00;;;;;;5093331;28;20301;-66
2021/03/30 01:46:42;;;;;;;62.28;6.90;;;5.10;1.00;;;;;;5093160;28;20852;-66
2021/03/30 01:49:12;;;;;;;60.83;6.13;;;5.10;1.00;;;;;;5093075;28;20216;-66
2021/03/30 01:51:39;;;;;;;62.35;7.15;;;5.00;1.00;;;;;;5093253;28;20206;-64
2021/03/30 01:54:07;;;;;;;60.45;6.13;;;5.00;1.00;;;;;;5093417;28;20656;-64
2021/03/30 01:56:34;;;;;;;62.28;6.10;;;4.90;1.00;;;;;;5092831;28;20204;-64
2021/03/30 01:59:03;;;;;;;60.92;6.63;;;4.90;1.00;;;;;;5093112;28;20662;-64
2021/03/30 02:01:31;;;;;;;65.10;6.60;;;4.80;1.00;;;;;;5093040;28;20299;-64
2021/03/30 02:03:59;;;;;;;61.65;6.45;;;4.80;1.00;;;;;;5092836;28;20219;-65
2021/03/30 02:06:27;;;;;;;60.67;6.50;;;4.80;1.00;;;;;;5092983;28;20291;-65
2021/03/30 02:08:58;;;;;;;62.67;6.55;;;4.70;1.00;;;;;;5092595;28;20639;-65
2021/03/30 02:11:28;;;;;;;64.45;6.78;;;4.70;1.00;;;;;;5092979;28;20201;-65
2021/03/30 02:13:56;;;;;;;62.55;7.50;;;4.70;1.00;;;;;;5092803;28;20296;-65
2021/03/30 02:16:28;;;;;;;63.47;6.93;;;4.60;1.00;;;;;;5092582;28;20208;-65
2021/03/30 02:19:06;;;;;;;62.50;6.70;;;4.60;1.00;;;;;;5092584;28;20300;-65
2021/03/30 02:21:36;;;;;;;61.83;6.20;;;4.60;1.00;;;;;;5092511;28;20680;-65
2021/03/30 02:24:08;;;;;;;62.15;6.95;;;4.60;1.00;;;;;;5092342;28;20801;-65
2021/03/30 02:26:35;;;;;;;61.67;6.07;;;4.60;1.00;;;;;;5081682;28;20201;-65
2021/03/30 02:29:04;;;;;;;62.13;6.85;;;4.60;1.00;;;;;;5091948;28;20710;-65
2021/03/30 02:31:33;;;;;;;61.35;6.70;;;4.60;1.00;;;;;;5092415;28;20203;-65
2021/03/30 02:34:04;;;;;;;60.67;6.00;;;4.60;1.00;;;;;;5091713;28;20786;-65
2021/03/30 02:36:31;;;;;;;60.15;6.82;;;4.60;1.00;;;;;;5092355;28;20210;-65
2021/03/30 02:39:04;;;;;;;61.58;6.80;;;4.50;1.00;;;;;;5092020;28;20228;-65
2021/03/30 02:41:32;;;;;;;60.70;6.50;;;4.50;1.00;;;;;;5092308;28;20208;-65
2021/03/30 02:44:00;;;;;;;61.63;7.15;;;4.50;1.00;;;;;;5092059;28;20206;-65
2021/03/30 02:46:27;;;;;;;61.80;6.60;;;4.50;1.00;;;;;;5091891;28;20272;-65
2021/03/30 02:48:55;;;;;;;61.65;6.10;;;4.50;1.00;;;;;;5092615;28;20379;-65
2021/03/30 02:51:23;;;;;;;60.28;6.93;;;4.50;1.00;;;;;;5092100;28;20298;-65
2021/03/30 02:53:51;;;;;;;64.15;6.78;;;4.40;1.00;;;;;;5091940;28;20218;-65
2021/03/30 02:56:18;;;;;;;61.70;6.50;;;4.40;1.00;;;;;;5091510;28;20752;-65
2021/03/30 02:58:45;;;;;;;60.13;6.40;;;4.40;1.00;;;;;;5091733;28;20235;-65
2021/03/30 03:01:15;;;;;;;60.95;6.07;;;4.40;1.00;;;;;;5091690;28;20299;-65
2021/03/30 03:03:42;;;;;;;61.13;6.70;;;4.40;1.00;;;;;;5091904;28;20294;-65
2021/03/30 03:06:09;;;;;;;61.85;6.80;;;4.40;1.00;;;;;;5091709;28;20740;-67
2021/03/30 03:08:37;;;;;;;61.72;6.82;;;4.40;1.00;;;;;;5091681;28;20774;-65
2021/03/30 03:11:05;;;;;;;61.00;6.03;;;4.40;1.00;;;;;;5091743;28;20306;-65
2021/03/30 03:13:33;;;;;;;61.08;6.53;;;4.40;1.00;;;;;;5091692;28;20257;-65
2021/03/30 03:15:59;;;;;;;61.72;6.20;;;4.40;1.00;;;;;;5091629;28;20720;-65
2021/03/30 03:18:26;;;;;;;59.95;6.70;;;4.40;1.00;;;;;;5085394;28;20722;-65
2021/03/30 03:20:54;;;;;;;64.53;6.25;;;4.40;1.00;;;;;;5091868;28;20318;-65
2021/03/30 03:23:20;;;;;;;60.55;6.60;;;4.40;1.00;;;;;;5091449;28;20207;-65
2021/03/30 03:25:47;;;;;;;60.92;6.82;;;4.40;1.00;;;;;;5091698;28;20238;-65
2021/03/30 03:28:14;;;;;;;59.22;5.80;;;4.30;1.00;;;;;;5091250;28;20223;-64
2021/03/30 03:30:41;;;;;;;62.83;7.13;;;4.30;1.00;;;;;;5091150;28;20771;-65
2021/03/30 03:33:09;;;;;;;61.72;6.43;;;4.30;1.00;;;;;;5091563;28;20200;-65
2021/03/30 03:35:36;;;;;;;62.47;6.28;;;4.30;1.00;;;;;;5091184;28;20302;-65
2021/03/30 03:38:04;;;;;;;62.33;6.55;;;4.20;1.00;;;;;;5091354;28;20298;-65
2021/03/30 03:40:31;;;;;;;60.20;6.78;;;4.20;1.00;;;;;;5091306;28;20208;-65
2021/03/30 03:42:57;;;;;;;63.53;6.90;;;4.20;1.00;;;;;;5091049;28;20204;-65
2021/03/30 03:45:24;;;;;;;60.45;6.50;;;4.20;1.00;;;;;;5091606;28;20618;-65
2021/03/30 03:47:51;;;;;;;61.85;6.45;;;4.20;1.00;;;;;;5091265;28;20775;-65
2021/03/30 03:50:19;;;;;;;59.95;6.55;;;4.20;1.00;;;;;;5091188;28;20299;-65
2021/03/30 03:52:50;;;;;;;60.97;6.45;;;4.20;1.00;;;;;;5091248;28;20208;-65
2021/03/30 03:55:19;;;;;;;62.15;6.35;;;4.20;1.00;;;;;;5091099;28;20208;-65
2021/03/30 03:57:50;;;;;;;62.15;6.63;;;4.10;1.00;;;;;;5090736;28;20224;-65
2021/03/30 04:00:19;;;;;;;61.80;7.78;;;4.10;1.00;;;;;;5091494;28;20204;-65
2021/03/30 04:02:48;;;;;;;60.58;6.60;;;4.10;1.00;;;;;;5091188;28;20296;-65
2021/03/30 04:05:19;;;;;;;63.20;7.45;;;4.10;1.00;;;;;;5091098;28;20236;-65
2021/03/30 04:07:49;;;;;;;64.85;7.95;;;4.10;1.00;;;;;;5092018;28;20221;-65
2021/03/30 04:10:19;;;;;;;67.20;7.85;;;4.00;1.00;;;;;;5095118;28;20291;-65
2021/03/30 04:12:46;;;;;;;63.65;7.50;;;4.00;1.00;;;;;;5095240;28;20280;-65
2021/03/30 04:15:13;;;;;;;61.53;6.88;;;4.00;1.00;;;;;;5095249;28;20212;-65
2021/03/30 04:17:41;;;;;;;62.97;7.32;;;4.00;1.00;;;;;;5095075;28;20271;-65
2021/03/30 04:20:10;;;;;;;63.58;7.00;;;4.00;1.00;;;;;;5095398;28;20318;-65
2021/03/30 04:22:37;;;;;;;60.75;7.72;;;3.90;1.00;;;;;;5094639;28;20751;-65
2021/03/30 04:25:05;;;;;;;65.65;6.53;;;3.90;1.00;;;;;;5094856;28;20204;-65
2021/03/30 04:27:32;;;;;;;66.30;7.07;;;3.90;1.00;;;;;;5094996;28;20338;-65
2021/03/30 04:29:59;;;;;;;60.63;6.65;;;3.90;1.00;;;;;;5094772;28;20569;-65
2021/03/30 04:32:25;;;;;;;62.63;6.50;;;3.90;1.00;;;;;;5094597;28;20199;-65
2021/03/30 04:34:52;;;;;;;62.70;7.45;;;3.90;1.00;;;;;;5094047;28;20218;-65
2021/03/30 04:37:19;;;;;;;61.85;6.65;;;3.90;1.00;;;;;;5086283;28;20576;-65
2021/03/30 04:39:46;;;;;;;62.17;7.45;;;3.90;1.00;;;;;;5094324;28;20234;-65
2021/03/30 04:42:13;;;;;;;59.72;6.25;;;3.90;1.00;;;;;;5094439;28;20297;-65
2021/03/30 04:44:39;;;;;;;61.85;6.95;;;3.80;1.00;;;;;;5094546;28;20576;-65
2021/03/30 04:47:06;;;;;;;61.63;7.00;;;3.80;1.00;;;;;;5094320;28;20211;-65
2021/03/30 04:49:32;;;;;;;60.70;6.28;;;3.80;1.00;;;;;;5094431;28;20254;-65
2021/03/30 04:51:58;;;;;;;59.75;6.50;;;3.70;1.00;;;;;;5094578;28;20287;-65
2021/03/30 04:54:25;;;;;;;63.10;6.90;;;3.70;1.00;;;;;;5094527;28;20370;-65
2021/03/30 04:56:52;;;;;;;63.40;6.75;;;3.70;1.00;;;;;;5094719;28;20314;-65
2021/03/30 04:59:19;;;;;;;63.47;7.20;;;3.60;1.00;;;;;;5094059;28;20219;-65
2021/03/30 05:01:45;;;;;;;62.53;6.85;;;3.60;1.00;;;;;;5094204;28;20588;-65
2021/03/30 05:04:12;;;;;;;62.83;7.15;;;3.60;1.00;;;;;;5094149;28;20347;-65
2021/03/30 05:06:38;;;;;;;62.92;7.60;;;3.50;1.00;;;;;;5093875;28;20291;-65
2021/03/30 05:09:05;;;;;;;61.83;6.80;;;3.50;1.00;;;;;;5094325;28;20255;-65
2021/03/30 05:11:31;;;;;;;64.05;7.63;;;3.50;1.00;;;;;;5094031;28;20307;-65
2021/03/30 05:14:00;;;;;;;62.05;6.95;;;3.40;1.00;;;;;;5093885;28;20638;-65
2021/03/30 05:16:26;;;;;;;61.97;7.50;;;3.40;1.00;;;;;;5094126;28;20208;-65
2021/03/30 05:18:52;;;;;;;62.08;7.03;;;3.50;1.00;;;;;;5087589;28;20592;-65
2021/03/30 05:21:19;;;;;;;62.78;8.20;;;3.40;1.00;;;;;;5093794;28;20555;-64
2021/03/30 05:23:45;;;;;;;65.15;8.15;;;3.40;1.00;;;;;;5093647;28;20236;-65
2021/03/30 05:26:12;;;;;;;61.92;7.60;;;3.40;1.00;;;;;;5085266;28;20246;-66
2021/03/30 05:28:38;;;;;;;61.50;6.82;;;3.50;1.00;;;;;;5093520;28;20693;-66
2021/03/30 05:31:05;;;;;;;63.13;7.13;;;3.50;1.00;;;;;;5094250;28;20664;-64
2021/03/30 05:33:32;;;;;;;61.30;6.93;;;3.50;1.00;;;;;;5093241;28;20240;-65
2021/03/30 05:35:58;;;;;;;64.38;7.30;;;3.50;1.00;;;;;;5093921;28;20208;-65
2021/03/30 05:38:24;;;;;;;63.08;8.00;;;3.50;1.00;;;;;;5093616;28;20680;-65
2021/03/30 05:40:51;;;;;;;63.38;7.38;;;3.60;1.00;;;;;;5093486;28;20353;-65
2021/03/30 05:43:18;;;;;;;62.17;7.18;;;3.60;1.00;;;;;;5093332;28;20207;-65
2021/03/30 05:45:45;;;;;;;65.30;7.90;;;3.60;1.00;;;;;;5093143;28;20204;-65
2021/03/30 05:48:14;;;;;;;62.67;8.10;;;3.60;1.00;;;;;;5093470;28;20260;-65
2021/03/30 05:50:41;;;;;;;60.65;6.68;;;3.60;1.00;;;;;;5093358;28;20208;-65
2021/03/30 05:53:08;;;;;;;65.68;7.47;;;3.70;1.00;;;;;;5093096;28;20742;-65
2021/03/30 05:55:36;;;;;;;65.75;8.73;;;3.70;1.00;;;;;;5093078;28;20208;-65
2021/03/30 05:58:04;;;;;;;65.18;9.02;;;3.70;1.00;;;;;;5093027;28;20334;-65
2021/03/30 06:00:35;;;;;;;63.60;7.60;;;3.80;1.00;;;;;;5093276;28;20201;-65
2021/03/30 06:03:04;;;;;;;63.85;8.02;;;3.90;1.00;;;;;;5092937;28;20216;-65
2021/03/30 06:05:32;;;;;;;64.30;7.45;;;3.90;1.00;;;;;;5092967;28;20205;-65
2021/03/30 06:07:59;;;;;;;65.13;8.30;;;4.00;1.00;;;;;;5093107;28;20230;-65
2021/03/30 06:10:27;;;;;;;63.00;7.68;;;4.10;1.00;;;;;;5092892;28;20196;-65
2021/03/30 06:12:54;;;;;;;61.75;7.32;;;4.20;1.00;;;;;;5092631;28;20290;-65
2021/03/30 06:15:25;;;;;;;62.80;7.57;;;4.20;1.00;;;;;;5092693;28;20204;-65
2021/03/30 06:17:52;;;;;;;65.13;7.53;;;4.30;1.00;;;;;;5092766;28;20232;-65
2021/03/30 06:20:27;;;;;;;62.70;7.82;;;4.40;1.00;;;;;;5092942;28;20224;-66
2021/03/30 06:22:58;;;;;;;63.75;7.68;;;4.40;1.00;;;;;;5092542;28;20206;-66
2021/03/30 06:25:35;;;;;;;62.58;7.38;;;4.50;1.00;;;;;;5092530;28;20588;-66
2021/03/30 06:28:19;;;;;;;62.65;7.70;;;4.60;1.00;;;;;;5092604;28;20263;-66
2021/03/30 06:31:01;;;;;;;60.80;6.55;;;4.70;1.00;;;;;;5091853;28;20460;-66
2021/03/30 06:33:28;;;;;;;61.65;7.03;;;4.70;1.00;;;;;;5092468;28;20251;-66
2021/03/30 06:36:20;;;;;;;62.28;7.20;;;4.80;1.00;;;;;;5092807;28;20257;-65
2021/03/30 06:38:49;;;;;;;66.32;7.13;;;4.90;1.00;;;;;;5092337;28;20228;-66
2021/03/30 06:41:41;;;;;;;63.03;7.15;;;5.00;1.00;;;;;;5092408;28;20214;-66
2021/03/30 06:44:25;;;;;;;62.03;7.35;;;5.10;1.00;;;;;;5092067;28;20664;-65
2021/03/30 06:46:58;;;;;;;61.10;7.65;;;5.10;1.00;;;;;;5092195;28;20247;-65
2021/03/30 06:49:25;;;;;;;60.15;7.05;;;5.20;1.00;;;;;;5092041;28;20239;-66
2021/03/30 06:51:52;;;;;;;62.60;7.50;;;5.30;1.00;;;;;;5092017;28;20214;-66
2021/03/30 06:54:19;;;;;;;60.13;6.93;;;5.40;1.00;;;;;;5092084;28;20241;-66
2021/03/30 06:56:50;;;;;;;62.30;7.80;;;5.50;1.00;;;;;;5092163;28;20236;-65
2021/03/30 06:59:17;;;;;;;62.45;7.80;;;5.60;1.00;;;;;;5091899;28;20247;-65
2021/03/30 07:01:46;;;;;;;63.58;7.10;;;5.70;1.00;;;;;;5092161;28;20329;-65
2021/03/30 07:04:13;;;;;;;61.08;7.05;;;5.80;1.00;;;;;;5091612;28;20204;-65
2021/03/30 07:06:40;;;;;;;63.35;9.10;;;6.00;1.00;;;;;;5092003;28;20236;-65
2021/03/30 07:09:09;;;;;;;64.15;7.53;;;6.20;1.00;;;;;;5091721;28;20224;-65
2021/03/30 07:11:39;;;;;;;63.60;8.15;;;6.30;1.00;;;;;;5092123;28;20208;-65
2021/03/30 07:14:05;;;;;;;63.40;7.88;;;6.40;1.00;;;;;;5091894;28;20204;-65
2021/03/30 07:16:36;;;;;;;67.00;7.93;;;6.60;1.00;;;;;;5091958;28;20334;-64
2021/03/30 07:19:03;;;;;;;63.95;7.85;;;6.70;1.00;;;;;;5091876;28;20233;-64
2021/03/30 07:21:33;;;;;;;66.70;7.78;;;6.90;1.00;;;;;;5076862;28;20204;-64
2021/03/30 07:24:04;;;;;;;64.50;6.80;;;7.10;1.00;;;;;;5071345;28;20254;-65
2021/03/30 07:26:36;;;;;;;65.05;7.75;;;7.20;1.00;;;;;;5071733;28;20210;-64
2021/03/30 07:29:05;;;;;;;68.97;7.60;;;7.40;1.00;;;;;;5071712;28;20243;-64
2021/03/30 07:31:37;;;;;;;64.15;8.23;;;7.60;1.00;;;;;;5071539;28;20221;-64
2021/03/30 07:34:09;;;;;;;62.53;7.30;;;7.80;1.00;;;;;;5071109;28;20212;-64
2021/03/30 07:36:43;;;;;;;66.22;7.70;;;7.90;1.00;;;;;;5071286;28;20210;-65
2021/03/30 07:39:10;;;;;;;67.68;7.20;;;8.10;1.00;;;;;;5071495;28;20232;-65
2021/03/30 07:41:39;;;;;;;62.00;6.93;;;8.30;1.00;;;;;;5072922;28;20694;-65
2021/03/30 07:44:08;;;;;;;66.97;6.87;;;8.40;1.00;;;;;;5077743;28;20978;-65
2021/03/30 07:46:35;;;;;;;62.73;7.53;;;8.60;1.00;;;;;;5077725;28;20450;-65
2021/03/30 07:49:03;;;;;;;64.13;8.10;;;8.70;1.00;;;;;;5077838;28;21042;-66
2021/03/30 07:51:38;;;;;;;61.90;6.90;;;8.90;1.00;;;;;;5078059;28;20473;-64
2021/03/30 07:54:09;;;;;;;62.07;7.20;;;9.10;1.00;;;;;;5077830;28;20480;-64
2021/03/30 07:56:52;;;;;;;65.87;7.10;;;9.20;1.00;;;;;;5077894;28;20574;-64
2021/03/30 07:59:47;;;;;;;63.53;7.43;;;9.30;1.00;;;;;;5081013;28;20511;-65
2021/03/30 08:02:22;;;;;;;62.10;7.00;;;9.50;1.00;;;;;;5088331;28;20460;-64
2021/03/30 08:05:12;;;;;;;62.00;7.20;;;9.70;1.00;;;;;;5092860;28;20509;-64
2021/03/30 08:07:49;;;;;;;62.10;6.80;;;9.90;1.00;;;;;;5094572;28;20469;-64
2021/03/30 08:10:30;;;;;;;63.80;7.43;;;10.00;1.00;;;;;;5097868;28;20523;-64
2021/03/30 08:13:29;;;;;;;60.53;6.20;;;10.30;1.00;;;;;;5097923;28;20860;-64
2021/03/30 08:15:58;;;;;;;59.87;6.30;;;10.50;1.00;;;;;;5092558;28;20507;-64
2021/03/30 08:18:26;;;;;;;66.53;6.97;;;10.70;1.00;;;;;;5091122;28;20484;-65
2021/03/30 08:20:58;;;;;;;64.27;7.20;;;10.80;1.00;;;;;;5086625;28;20556;-65
2021/03/30 08:23:25;;;;;;;62.87;6.60;;;11.00;1.00;;;;;;5093170;28;21834;-64
2021/03/30 08:25:54;;;;;;;62.83;6.70;;;11.20;1.00;;;;;;5093459;28;20461;-65
2021/03/30 08:28:52;;;;;;;61.13;6.10;;;11.30;1.00;;;;;;5089080;28;20474;-65
2021/03/30 08:31:20;;;;;;;63.30;6.40;;;11.50;1.00;;;;;;5094023;28;20819;-65
2021/03/30 08:33:49;;;;;;;63.70;6.53;;;11.70;1.00;;;;;;5097567;28;20458;-65
2021/03/30 08:36:19;;;;;;;60.50;6.20;;;11.90;1.00;;;;;;5097723;28;20498;-66
2021/03/30 08:38:48;;;;;;;61.50;6.23;;;12.00;1.00;;;;;;5096862;28;20581;-66
2021/03/30 08:41:48;;;;;;;62.50;6.50;;;12.20;1.00;;;;;;5098028;28;20446;-66
2021/03/30 08:44:16;;;;;;;62.60;6.47;;;12.40;1.00;;;;;;5097809;28;20806;-66
2021/03/30 08:46:45;;;;;;;64.37;6.20;;;12.60;1.00;;;;;;5098059;28;20446;-66
2021/03/30 08:49:32;;;;;;;64.67;5.90;;;12.80;1.00;;;;;;5096985;28;20455;-66
2021/03/30 08:52:00;;;;;;;63.00;5.97;;;12.90;1.00;;;;;;5097735;28;20467;-66
2021/03/30 08:54:27;;;;;;;61.87;5.50;;;13.10;1.00;;;;;;5094525;28;20809;-66
2021/03/30 08:56:59;;;;;;;58.63;5.60;;;13.20;1.00;;;;;;5094659;28;20473;-66
2021/03/30 08:59:28;;;;;;;60.90;5.47;;;13.40;1.00;;;;;;5094240;28;20478;-65
2021/03/30 09:02:04;;;;;;;60.47;5.57;;;13.50;1.00;;;;;;5094175;28;20482;-66
2021/03/30 09:04:36;;;;;;;60.97;5.43;;;13.70;1.00;;;;;;5091250;28;20894;-65
2021/03/30 09:07:03;;;;;;;63.57;6.27;;;13.90;1.00;;;;;;5090483;28;20491;-65
2021/03/30 09:09:34;;;;;;;62.47;6.87;;;14.10;1.00;;;;;;5089501;28;20846;-65
2021/03/30 09:12:02;;;;;;;59.20;5.63;;;14.20;1.00;;;;;;5091296;28;20526;-65
2021/03/30 09:14:28;;;;;;;64.93;6.53;;;14.40;1.00;;;;;;5081337;28;20915;-65
2021/03/30 09:17:05;;;;;;;61.00;6.10;;;14.60;1.00;;;;;;5093618;28;20493;-65
2021/03/30 09:19:41;;;;;;;60.60;6.10;;;14.80;1.00;;;;;;5094062;28;20477;-65
2021/03/30 09:22:12;;;;;;;62.30;6.37;;;15.00;1.00;;;;;;5093879;28;20552;-65
2021/03/30 09:25:02;;;;;;;61.50;5.90;;;15.20;1.00;;;;;;5093735;28;20990;-65
2021/03/30 09:27:32;;;;;;;62.97;6.60;;;15.50;1.00;;;;;;5093934;28;20515;-64
2021/03/30 09:30:01;;;;;;;61.90;6.60;;;15.80;1.00;;;;;;5094152;28;20446;-64
2021/03/30 09:32:31;;;;;;;60.87;6.50;;;16.00;1.00;;;;;;5093588;28;20451;-64
2021/03/30 09:35:03;;;;;;;60.90;6.30;;;16.20;1.00;;;;;;5093298;28;21049;-64
2021/03/30 09:37:34;;;;;;;62.00;6.73;;;16.40;1.00;;;;;;5093796;28;20464;-64
2021/03/30 09:40:06;;;;;;;59.50;5.90;;;16.70;1.00;;;;;;5093592;28;20490;-64
2021/03/30 09:42:33;;;;;;;61.77;6.60;;;16.90;1.00;;;;;;5093375;28;20447;-64
2021/03/30 09:44:59;;;;;;;61.63;6.60;;;17.10;1.00;;;;;;5093412;28;20878;-64
2021/03/30 09:47:27;;;;;;;60.47;6.03;;;17.40;1.00;;;;;;5093218;28;20535;-64
2021/03/30 09:49:55;;;;;;;60.70;6.07;;;17.70;1.00;;;;;;5093358;28;20441;-65
2021/03/30 09:52:22;;;;;;;61.03;7.00;;;18.10;1.00;;;;;;5093457;28;20524;-65
2021/03/30 09:54:48;;;;;;;64.40;6.00;;;18.50;1.00;;;;;;5093357;28;20480;-65
2021/03/30 09:57:16;;;;;;;62.47;6.63;;;18.80;1.00;;;;;;5093195;28;20473;-65
2021/03/30 09:59:46;;;;;;;63.37;6.57;;;19.00;1.00;;;;;;5086500;28;20617;-65
2021/03/30 10:02:14;;;;;;;64.67;7.50;;;19.60;1.00;;;;;;5087918;28;20456;-65
2021/03/30 10:04:40;;;;;;;61.60;6.30;;;21.00;1.00;;;;;;5088313;28;20477;-63
2021/03/30 10:07:15;;;;;;;62.17;6.47;;;22.80;1.00;;;;;;5085510;28;20583;-66
2021/03/30 10:10:05;;;;;;;62.70;6.97;;;24.70;1.00;;;;;;5081818;28;20934;-64
2021/03/30 10:12:34;;;;;;;62.27;7.30;;;26.30;1.00;;;;;;5088488;28;20862;-64
2021/03/30 10:15:02;;;;;;;60.73;6.37;;;27.60;1.00;;;;;;5092537;28;20584;-64
2021/03/30 10:17:30;;;;;;;61.10;8.00;;;28.70;1.00;;;;;;5092912;28;20542;-64
2021/03/30 10:19:57;;;;;;;60.70;6.10;;;29.50;1.00;;;;;;5092814;28;20834;-65
2021/03/30 10:22:32;;;;;;;59.50;6.17;;;30.00;1.00;;;;;;5092804;28;20450;-64
2021/03/30 10:25:17;;;;;;;62.97;7.60;;;30.50;1.00;;;;;;5092543;28;20447;-64
2021/03/30 10:27:52;;;;;;;61.47;6.43;;;30.90;1.00;;;;;;5092778;28;20505;-64
2021/03/30 10:30:29;;;;;;;59.93;6.43;;;31.50;1.00;;;;;;5092518;28;20485;-64
2021/03/30 10:32:58;;;;;;;60.20;6.90;;;32.20;1.00;;;;;;5092434;28;20454;-64
2021/03/30 10:35:25;;;;;;;59.70;6.43;;;32.80;1.00;;;;;;5092415;28;20469;-65
2021/03/30 10:37:53;;;;;;;60.27;6.57;;;33.40;1.00;;;;;;5092568;28;20511;-65
2021/03/30 10:40:20;;;;;;;60.27;6.80;;;33.80;1.00;;;;;;5090707;28;20568;-65
2021/03/30 10:42:46;;;;;;;59.90;6.20;;;33.90;1.00;;;;;;5089432;28;20447;-65
2021/03/30 10:45:13;;;;;;;60.00;6.67;;;33.90;1.00;;;;;;5092355;28;20530;-65
2021/03/30 10:47:41;;;;;;;63.13;5.90;;;33.80;1.00;;;;;;5085794;28;20897;-65
2021/03/30 10:50:10;;;;;;;58.90;5.87;;;34.20;1.00;;;;;;5092265;28;20542;-65
2021/03/30 10:52:38;;;;;;;60.10;6.30;;;34.70;1.00;;;;;;5072257;28;20461;-65
2021/03/30 10:55:08;;;;;;;59.80;6.07;;;35.30;1.00;;;;;;5065637;28;20557;-66
2021/03/30 10:57:36;;;;;;;65.40;6.23;;;35.80;1.00;;;;;;5074207;28;20497;-65
2021/03/30 11:00:05;;;;;;;58.37;5.83;;;36.20;1.00;;;;;;5082312;28;20482;-65
2021/03/30 11:02:32;;;;;;;59.37;5.97;;;36.60;1.00;;;;;;5086177;28;20475;-65
2021/03/30 11:04:59;;;;;;;58.70;5.90;;;37.00;1.00;;;;;;5087170;28;20457;-65
2021/03/30 11:07:25;;;;;;;59.47;5.80;;;37.50;1.00;;;;;;5081140;28;20491;-65
2021/03/30 11:09:51;;;;;;;60.23;5.87;;;38.10;1.00;;;;;;5085465;28;20457;-65
2021/03/30 11:12:19;;;;;;;61.27;5.83;;;38.70;1.00;;;;;;5086545;28;20515;-65
2021/03/30 11:14:45;;;;;;;58.67;5.47;;;39.00;1.00;;;;;;5091134;28;20451;-65
2021/03/30 11:17:11;;;;;;;58.30;5.60;;;39.20;1.00;;;;;;5091176;28;20537;-65
2021/03/30 11:19:38;;;;;;;58.80;5.67;;;39.40;1.00;;;;;;5091621;28;21006;-65
2021/03/30 11:22:06;;;;;;;58.13;5.30;;;39.50;1.00;;;;;;5091869;28;20458;-65
2021/03/30 11:24:35;;;;;;;59.60;4.87;;;39.80;1.00;;;;;;5091782;28;20482;-65
2021/03/30 11:27:02;;;;;;;57.40;4.73;;;40.20;1.00;;;;;;5091699;28;20494;-65
2021/03/30 11:29:40;;;;;;;58.67;4.30;;;40.50;1.00;;;;;;5091228;28;20943;-65
2021/03/30 11:34:56;;;;;;;58.70;4.20;;;40.80;1.00;;;;;;5084422;28;20483;-66
2021/03/30 11:37:37;;;;;;;57.87;4.87;;;40.90;1.00;;;;;;5091538;28;20817;-66
2021/03/30 11:40:05;;;;;;;58.03;4.50;;;40.80;1.00;;;;;;5091719;28;20427;-66
2021/03/30 11:42:31;;;;;;;57.37;4.17;;;40.40;1.00;;;;;;5087553;28;20454;-65
2021/03/30 11:44:59;;;;;;;56.70;4.10;;;40.40;1.00;;;;;;5091436;28;21177;-65
2021/03/30 11:47:25;;;;;;;60.43;4.30;;;40.40;1.00;;;;;;5091425;28;20482;-66
2021/03/30 11:49:51;;;;;;;57.97;4.10;;;40.50;1.00;;;;;;5091453;28;20482;-65
2021/03/30 11:52:18;;;;;;;58.27;3.80;;;40.50;1.00;;;;;;5087550;28;20536;-66
2021/03/30 11:54:45;;;;;;;59.27;4.70;;;40.60;1.00;;;;;;5083252;28;20486;-65
2021/03/30 11:57:11;;;;;;;56.77;4.00;;;40.50;1.00;;;;;;5091475;28;20454;-65
2021/03/30 11:59:38;;;;;;;57.17;4.73;;;40.40;1.00;;;;;;5091516;28;20439;-66
2021/03/30 12:02:05;;;;;;;59.43;4.73;;;40.40;1.00;;;;;;5091071;28;20537;-66
2021/03/30 12:04:31;;;;;;;57.70;4.23;;;40.60;1.00;;;;;;5086235;28;20545;-65
2021/03/30 12:06:58;;;;;;;56.90;3.87;;;41.00;1.00;;;;;;5090739;28;20513;-66
2021/03/30 12:09:24;;;;;;;57.13;4.47;;;41.10;1.00;;;;;;5091107;28;20783;-66
2021/03/30 12:11:51;;;;;;;59.60;4.47;;;41.10;1.00;;;;;;5091261;28;20478;-65
2021/03/30 12:14:17;;;;;;;57.57;4.63;;;41.10;1.00;;;;;;5091405;28;20533;-66
2021/03/30 12:16:46;;;;;;;58.37;4.80;;;41.70;1.00;;;;;;5091241;28;20451;-66
2021/03/30 12:19:14;;;;;;;56.50;4.33;;;42.00;1.00;;;;;;5091190;28;20894;-66
2021/03/30 12:21:40;;;;;;;58.93;4.53;;;42.70;1.00;;;;;;5091670;28;20527;-63
2021/03/30 12:24:08;;;;;;;57.30;5.07;;;43.30;1.00;;;;;;5091133;28;20457;-63
2021/03/30 12:26:34;;;;;;;56.47;4.60;;;43.80;1.00;;;;;;5091097;28;20844;-63
2021/03/30 12:29:02;;;;;;;58.77;4.10;;;43.60;1.00;;;;;;5092388;28;20679;-65
2021/03/30 12:31:29;;;;;;;56.80;4.27;;;43.50;1.00;;;;;;5094925;28;20499;-65
2021/03/30 12:33:55;;;;;;;58.17;5.27;;;43.60;1.00;;;;;;5094624;28;20994;-64
2021/03/30 12:36:23;;;;;;;56.70;4.10;;;44.00;1.00;;;;;;5094969;28;20435;-64
2021/03/30 12:38:49;;;;;;;59.87;4.80;;;44.30;1.00;;;;;;5094771;28;20498;-65
2021/03/30 12:41:16;;;;;;;60.30;4.20;;;44.30;1.00;;;;;;5094713;28;20521;-65
2021/03/30 12:43:42;;;;;;;57.57;4.80;;;44.30;1.00;;;;;;5094473;28;20450;-65
2021/03/30 12:46:08;;;;;;;59.97;4.30;;;44.70;1.00;;;;;;5094501;28;20934;-65
2021/03/30 12:48:35;;;;;;;57.07;4.43;;;44.70;1.00;;;;;;5093969;28;20947;-65
2021/03/30 12:51:01;;;;;;;59.50;5.30;;;44.90;1.00;;;;;;5094549;28;20572;-64
2021/03/30 12:53:28;;;;;;;58.30;4.50;;;45.40;1.00;;;;;;5094494;28;20489;-65
2021/03/30 12:55:55;;;;;;;56.90;4.07;;;45.50;1.00;;;;;;5090455;28;20901;-65
2021/03/30 12:58:21;;;;;;;56.37;3.70;;;45.80;1.00;;;;;;5089919;28;20857;-64
2021/03/30 13:00:48;;;;;;;57.80;4.57;;;46.00;1.00;;;;;;5088406;28;20698;-64
2021/03/30 13:03:14;;;;;;;57.07;4.10;;;45.80;1.00;;;;;;5088313;28;20450;-64
2021/03/30 13:05:40;;;;;;;56.93;4.23;;;45.20;1.00;;;;;;5088074;28;20588;-64
2021/03/30 13:08:07;;;;;;;58.00;4.37;;;44.50;1.00;;;;;;5086271;28;20904;-65